Time;durP1;ratioP1;P1;durP2;ratioP2;P2;SDS_P1;SDS_P2;PMS_P1;PMS_P2;Temp;Humidity;BMP_temperature;BMP_pressure;BME280_temperature;BME280_humidity;BME280_pressure;Samples;Min_cycle;Max_cycle;Signal;HPM_P1;HPM_P2
2021/06/26 00:00:55;;;;;;;2.75;1.90;;;16.10;93.00;;;;;;5034401;28;20025;-75
2021/06/26 00:03:26;;;;;;;1.95;1.58;;;16.10;93.30;;;;;;5034328;28;20385;-75
2021/06/26 00:05:53;;;;;;;4.70;1.40;;;16.10;93.60;;;;;;5034220;28;20026;-75
2021/06/26 00:08:20;;;;;;;2.03;1.40;;;16.10;93.90;;;;;;5034492;28;20500;-75
2021/06/26 00:10:47;;;;;;;3.80;1.70;;;16.10;94.30;;;;;;5034633;28;20064;-75
2021/06/26 00:13:14;;;;;;;2.28;1.77;;;16.00;94.70;;;;;;5033989;28;20049;-75
2021/06/26 00:15:40;;;;;;;2.55;1.70;;;16.00;95.00;;;;;;5016528;28;20116;-75
2021/06/26 00:18:06;;;;;;;2.75;1.70;;;16.00;95.40;;;;;;5033957;28;20037;-75
2021/06/26 00:20:33;;;;;;;3.00;1.80;;;16.00;95.80;;;;;;5034080;28;20024;-75
2021/06/26 00:22:59;;;;;;;3.08;1.70;;;15.90;96.30;;;;;;5033905;28;20519;-75
2021/06/26 00:25:25;;;;;;;3.33;1.85;;;15.80;97.10;;;;;;5034239;28;20453;-75
2021/06/26 00:27:52;;;;;;;2.22;1.60;;;15.80;97.70;;;;;;5033813;28;20102;-75
2021/06/26 00:30:18;;;;;;;2.78;1.45;;;15.80;98.60;;;;;;5033954;28;20013;-75
2021/06/26 00:32:44;;;;;;;2.40;1.67;;;15.80;99.10;;;;;;5033799;28;20100;-75
2021/06/26 00:35:11;;;;;;;2.38;1.70;;;15.80;99.90;;;;;;5033769;28;20032;-75
2021/06/26 00:37:37;;;;;;;2.85;2.22;;;15.70;99.90;;;;;;5033630;28;20612;-75
2021/06/26 00:40:05;;;;;;;2.95;1.70;;;15.70;99.90;;;;;;5033528;28;20462;-75
2021/06/26 00:42:33;;;;;;;4.97;1.67;;;15.70;99.90;;;;;;5033646;28;20037;-75
2021/06/26 00:44:58;;;;;;;2.33;1.80;;;15.70;99.90;;;;;;5033579;28;20048;-75
2021/06/26 00:47:25;;;;;;;2.75;1.92;;;15.70;99.90;;;;;;5033629;28;20465;-75
2021/06/26 00:49:51;;;;;;;2.05;1.70;;;15.70;99.90;;;;;;5033990;28;20412;-75
2021/06/26 00:52:17;;;;;;;4.22;1.90;;;15.60;99.90;;;;;;5033351;28;20026;-75
2021/06/26 00:54:43;;;;;;;1.75;1.65;;;15.60;99.90;;;;;;5033443;28;20099;-75
2021/06/26 00:57:09;;;;;;;2.15;1.90;;;15.50;99.90;;;;;;5015585;28;20116;-75
2021/06/26 00:59:35;;;;;;;2.20;1.85;;;15.50;99.90;;;;;;5033399;28;20116;-75
2021/06/26 01:02:03;;;;;;;2.90;1.83;;;15.50;99.90;;;;;;5033238;28;20014;-75
2021/06/26 01:04:29;;;;;;;3.53;2.10;;;15.40;99.90;;;;;;5033249;28;20021;-75
2021/06/26 01:06:55;;;;;;;3.40;2.13;;;15.50;99.90;;;;;;5033239;28;20028;-75
2021/06/26 01:09:21;;;;;;;4.18;2.35;;;15.40;99.90;;;;;;5032543;28;20025;-75
2021/06/26 01:11:48;;;;;;;3.80;2.22;;;15.40;99.90;;;;;;5033125;28;20377;-75
2021/06/26 01:14:14;;;;;;;3.42;2.63;;;15.40;99.90;;;;;;5032847;28;20108;-75
2021/06/26 01:16:40;;;;;;;2.10;1.80;;;15.30;99.90;;;;;;5032902;28;20021;-75
2021/06/26 01:52:46;;;;;;;3.42;2.58;;;15.20;99.90;;;;;;5685627;22;20062;-76
2021/06/26 01:55:13;;;;;;;5.85;3.00;;;15.20;99.90;;;;;;4975675;28;20026;-76
2021/06/26 01:57:43;;;;;;;4.80;3.00;;;15.20;99.90;;;;;;4992825;28;20042;-76
2021/06/26 02:00:10;;;;;;;3.97;2.50;;;15.20;99.90;;;;;;4993022;28;20022;-76
2021/06/26 02:02:37;;;;;;;5.53;2.72;;;15.20;99.90;;;;;;4991406;28;20061;-76
2021/06/26 02:05:04;;;;;;;3.65;2.65;;;15.20;99.90;;;;;;4991656;28;20243;-76
2021/06/26 02:07:30;;;;;;;3.05;2.60;;;15.20;99.90;;;;;;4992741;28;20552;-76
2021/06/26 02:09:55;;;;;;;2.92;2.40;;;15.10;99.90;;;;;;4992820;28;20037;-76
2021/06/26 02:12:21;;;;;;;3.22;2.67;;;15.20;99.90;;;;;;4992921;28;20044;-76
2021/06/26 02:14:47;;;;;;;4.07;2.90;;;15.10;99.90;;;;;;4992924;28;20492;-76
2021/06/26 02:17:12;;;;;;;4.03;2.83;;;15.10;99.90;;;;;;4992614;28;20045;-76
2021/06/26 02:19:38;;;;;;;4.10;3.00;;;15.20;99.90;;;;;;4992435;28;20065;-76
2021/06/26 02:22:04;;;;;;;4.05;3.38;;;15.10;99.90;;;;;;4992922;28;20018;-76
2021/06/26 02:24:29;;;;;;;4.35;2.78;;;15.20;99.90;;;;;;4992409;28;20038;-76
2021/06/26 02:26:55;;;;;;;3.63;2.88;;;15.20;99.90;;;;;;4975531;28;20022;-76
2021/06/26 02:29:21;;;;;;;5.47;2.65;;;15.20;99.90;;;;;;4992493;28;20022;-76
2021/06/26 02:31:47;;;;;;;3.70;2.75;;;15.20;99.90;;;;;;4992624;28;20109;-76
2021/06/26 02:34:14;;;;;;;4.10;2.38;;;15.20;99.90;;;;;;4992485;28;20482;-76
2021/06/26 02:36:41;;;;;;;3.47;2.50;;;15.20;99.90;;;;;;4992628;28;20465;-76
2021/06/26 02:39:07;;;;;;;3.55;2.80;;;15.30;99.90;;;;;;4992724;28;20033;-76
2021/06/26 02:41:32;;;;;;;6.63;2.83;;;15.20;99.90;;;;;;4992380;28;20027;-76
2021/06/26 02:43:58;;;;;;;4.57;2.70;;;15.30;99.90;;;;;;4992693;28;20030;-76
2021/06/26 02:46:24;;;;;;;5.45;2.78;;;15.30;99.90;;;;;;4992392;28;20422;-76
2021/06/26 02:48:49;;;;;;;5.38;2.80;;;15.30;99.90;;;;;;4992411;28;20161;-76
2021/06/26 02:51:15;;;;;;;3.50;2.80;;;15.30;99.90;;;;;;4992446;28;20025;-76
2021/06/26 02:53:41;;;;;;;5.88;2.72;;;15.40;99.90;;;;;;4991868;28;20086;-76
2021/06/26 02:56:07;;;;;;;5.20;2.67;;;15.40;99.90;;;;;;4992413;28;20026;-76
2021/06/26 02:58:33;;;;;;;2.70;2.45;;;15.40;99.90;;;;;;4992106;28;20453;-76
2021/06/26 03:01:00;;;;;;;5.20;2.80;;;15.50;99.90;;;;;;4992290;28;20023;-76
2021/06/26 03:03:25;;;;;;;3.70;2.42;;;15.40;99.90;;;;;;4992090;28;20124;-76
2021/06/26 03:05:51;;;;;;;3.75;2.33;;;15.50;99.90;;;;;;4992333;28;20019;-77
2021/06/26 03:08:17;;;;;;;3.70;3.03;;;15.50;99.90;;;;;;4992203;28;20061;-76
2021/06/26 03:10:43;;;;;;;5.75;2.45;;;15.60;99.90;;;;;;4992083;28;20030;-76
2021/06/26 03:13:09;;;;;;;5.50;3.05;;;15.60;99.90;;;;;;4992021;28;20033;-76
2021/06/26 03:15:34;;;;;;;6.88;2.80;;;15.60;99.90;;;;;;4992068;28;20030;-76
2021/06/26 03:18:00;;;;;;;3.15;2.60;;;15.60;99.90;;;;;;4992330;28;20305;-76
2021/06/26 03:20:26;;;;;;;4.45;2.40;;;15.50;99.90;;;;;;4974530;28;20558;-76
2021/06/26 03:22:52;;;;;;;4.00;2.70;;;15.60;99.90;;;;;;4992130;28;20367;-76
2021/06/26 03:25:17;;;;;;;3.15;2.75;;;15.60;99.90;;;;;;4974887;28;20367;-77
2021/06/26 03:27:43;;;;;;;3.47;2.83;;;15.60;99.90;;;;;;4992022;28;20109;-76
2021/06/26 03:30:10;;;;;;;2.90;2.60;;;15.60;99.90;;;;;;4992136;28;20033;-76
2021/06/26 03:32:35;;;;;;;4.50;3.17;;;15.60;99.90;;;;;;4995060;28;20019;-76
2021/06/26 03:35:01;;;;;;;3.58;2.60;;;15.60;99.90;;;;;;4995829;28;20023;-76
2021/06/26 03:37:27;;;;;;;2.85;2.38;;;15.70;99.90;;;;;;4995404;28;20508;-76
2021/06/26 03:39:53;;;;;;;3.50;2.83;;;15.70;99.90;;;;;;4995483;28;20030;-77
2021/06/26 03:42:18;;;;;;;6.05;2.70;;;15.70;99.90;;;;;;4994207;28;20534;-76
2021/06/26 03:44:44;;;;;;;5.68;2.20;;;15.70;99.90;;;;;;4977814;28;20034;-76
2021/06/26 03:47:10;;;;;;;2.83;2.28;;;15.70;99.90;;;;;;4995734;28;20157;-76
2021/06/26 03:49:38;;;;;;;3.85;2.55;;;15.70;99.90;;;;;;4995174;28;20389;-76
2021/06/26 03:52:05;;;;;;;3.55;2.42;;;15.70;99.90;;;;;;4995093;28;20096;-76
2021/06/26 03:54:31;;;;;;;2.58;2.15;;;15.80;99.90;;;;;;4995118;28;20034;-76
2021/06/26 03:56:57;;;;;;;3.95;2.47;;;15.80;99.90;;;;;;4995214;28;20022;-76
2021/06/26 03:59:23;;;;;;;3.25;2.58;;;15.80;99.90;;;;;;4995015;28;20031;-76
2021/06/26 04:01:49;;;;;;;4.18;3.08;;;15.90;99.90;;;;;;4995272;28;20096;-76
2021/06/26 04:04:15;;;;;;;3.13;2.60;;;15.90;99.90;;;;;;4995146;28;20085;-76
2021/06/26 04:06:40;;;;;;;4.28;2.83;;;15.90;99.90;;;;;;4995042;28;20018;-76
2021/06/26 04:09:06;;;;;;;4.18;2.55;;;15.90;99.90;;;;;;4994982;28;20038;-76
2021/06/26 04:11:32;;;;;;;4.15;2.67;;;15.90;99.90;;;;;;4994875;28;20049;-76
2021/06/26 04:13:58;;;;;;;3.53;2.50;;;15.90;99.90;;;;;;4994835;28;20029;-76
2021/06/26 04:16:23;;;;;;;4.07;2.83;;;15.90;99.90;;;;;;4994875;28;20030;-76
2021/06/26 04:18:49;;;;;;;8.20;2.63;;;16.00;99.90;;;;;;4994655;28;20089;-77
2021/06/26 04:21:15;;;;;;;2.47;2.22;;;16.00;99.90;;;;;;4994797;28;20529;-76
2021/06/26 04:23:41;;;;;;;3.70;2.58;;;16.00;99.90;;;;;;4994521;28;20019;-76
2021/06/26 04:26:07;;;;;;;3.38;2.50;;;16.00;99.90;;;;;;4994778;28;20532;-76
2021/06/26 04:28:33;;;;;;;2.65;2.33;;;16.10;99.90;;;;;;4994423;28;20437;-76
2021/06/26 04:30:58;;;;;;;2.47;2.15;;;16.10;99.90;;;;;;4994687;28;20254;-76
2021/06/26 04:33:28;;;;;;;4.78;2.50;;;16.10;99.90;;;;;;4994501;28;20030;-76
2021/06/26 04:35:54;;;;;;;3.57;2.57;;;16.10;99.90;;;;;;4994799;28;20373;-76
2021/06/26 04:38:22;;;;;;;5.63;2.40;;;16.10;99.90;;;;;;4994415;28;20386;-76
2021/06/26 04:40:51;;;;;;;3.63;2.40;;;16.10;99.90;;;;;;4994257;28;20022;-76
2021/06/26 04:43:20;;;;;;;3.58;2.60;;;16.00;99.90;;;;;;4993105;28;20121;-77
2021/06/26 04:45:48;;;;;;;2.60;2.40;;;16.10;99.90;;;;;;4994237;28;20116;-76
2021/06/26 04:48:18;;;;;;;2.97;2.20;;;16.10;99.90;;;;;;4994307;28;20113;-76
2021/06/26 04:50:43;;;;;;;;;;;16.10;99.90;;;;;;4977128;28;20022;-76
2021/06/26 04:53:09;;;;;;;2.42;2.08;;;16.20;99.90;;;;;;4993933;28;20270;-76
2021/06/26 04:55:35;;;;;;;3.92;2.17;;;16.20;99.90;;;;;;4994102;28;20501;-76
2021/06/26 04:58:01;;;;;;;3.47;2.25;;;16.20;99.90;;;;;;4994040;28;20042;-76
2021/06/26 05:00:27;;;;;;;4.60;2.50;;;16.20;99.90;;;;;;4993900;28;20026;-76
2021/06/26 05:02:52;;;;;;;3.10;2.10;;;16.20;99.90;;;;;;4994068;28;20042;-77
2021/06/26 05:05:18;;;;;;;3.00;1.80;;;16.20;99.90;;;;;;4993893;28;20053;-76
2021/06/26 05:07:45;;;;;;;6.68;2.20;;;16.20;99.90;;;;;;4993900;28;20482;-76
2021/06/26 05:10:11;;;;;;;5.80;2.40;;;16.20;99.90;;;;;;4993814;28;20045;-76
2021/06/26 05:12:41;;;;;;;2.35;2.05;;;16.20;99.90;;;;;;4993748;28;20399;-76
2021/06/26 05:15:07;;;;;;;3.22;2.67;;;16.30;99.90;;;;;;4993683;28;20065;-77
2021/06/26 05:17:33;;;;;;;3.25;2.08;;;16.30;99.90;;;;;;4993809;28;20074;-76
2021/06/26 05:19:59;;;;;;;3.00;2.42;;;16.30;99.90;;;;;;4976197;28;20060;-76
2021/06/26 05:22:24;;;;;;;4.53;2.08;;;16.40;99.90;;;;;;4993637;28;20029;-76
2021/06/26 05:24:50;;;;;;;2.58;2.05;;;16.40;99.90;;;;;;4993488;28;20022;-76
2021/06/26 05:27:16;;;;;;;2.20;2.00;;;16.40;99.90;;;;;;4993675;28;20441;-77
2021/06/26 05:29:43;;;;;;;2.08;1.70;;;16.50;99.90;;;;;;4993431;28;20036;-76
2021/06/26 05:32:09;;;;;;;3.35;2.03;;;16.50;99.90;;;;;;4993710;28;20035;-77
2021/06/26 05:34:36;;;;;;;2.17;1.80;;;16.50;99.90;;;;;;4993236;28;20023;-76
2021/06/26 05:37:02;;;;;;;2.33;1.90;;;16.60;99.90;;;;;;4993387;28;20026;-76
2021/06/26 05:39:28;;;;;;;2.85;2.05;;;16.60;99.90;;;;;;4993428;28;20030;-76
2021/06/26 05:41:53;;;;;;;2.13;1.80;;;16.60;99.90;;;;;;4993352;28;20474;-76
2021/06/26 05:44:19;;;;;;;2.33;1.80;;;16.70;99.90;;;;;;4993264;28;20030;-77
2021/06/26 05:46:45;;;;;;;2.25;1.83;;;16.80;99.90;;;;;;4993397;28;20037;-77
2021/06/26 05:49:11;;;;;;;3.75;1.83;;;16.80;99.90;;;;;;4993100;28;20018;-76
2021/06/26 05:51:36;;;;;;;2.38;1.92;;;16.80;99.70;;;;;;4993064;28;20126;-76
2021/06/26 05:54:02;;;;;;;3.38;1.75;;;16.90;99.50;;;;;;4992484;28;20046;-76
2021/06/26 05:56:28;;;;;;;2.03;1.80;;;17.00;98.80;;;;;;4993111;28;20075;-76
2021/06/26 05:58:54;;;;;;;5.10;2.10;;;17.00;98.20;;;;;;4993165;28;20367;-76
2021/06/26 06:01:20;;;;;;;2.28;1.65;;;17.10;97.10;;;;;;4975632;28;20031;-76
2021/06/26 06:03:47;;;;;;;2.60;2.00;;;17.20;97.00;;;;;;4975303;28;20026;-76
2021/06/26 06:06:13;;;;;;;1.63;1.52;;;17.30;96.40;;;;;;4975530;28;20022;-76
2021/06/26 06:08:39;;;;;;;2.28;1.83;;;17.50;95.50;;;;;;4992669;28;20102;-76
2021/06/26 06:11:05;;;;;;;3.03;2.05;;;17.60;93.60;;;;;;4993134;28;20109;-76
2021/06/26 06:13:32;;;;;;;2.70;1.92;;;17.90;93.50;;;;;;4992820;28;20054;-76
2021/06/26 06:15:58;;;;;;;2.88;2.20;;;18.10;93.60;;;;;;4992786;28;20040;-76
2021/06/26 06:18:24;;;;;;;2.08;1.70;;;18.40;92.70;;;;;;4992504;28;20046;-76
2021/06/26 06:20:50;;;;;;;3.35;1.95;;;18.80;91.70;;;;;;4992653;28;20022;-77
2021/06/26 06:23:16;;;;;;;2.10;1.83;;;19.10;90.10;;;;;;4992594;28;20164;-76
2021/06/26 06:25:42;;;;;;;3.03;1.75;;;19.30;88.40;;;;;;4992812;28;20029;-76
2021/06/26 06:28:08;;;;;;;3.42;1.80;;;19.60;87.90;;;;;;4992679;28;20261;-77
2021/06/26 06:30:35;;;;;;;2.13;1.75;;;19.80;84.90;;;;;;4974934;28;20026;-76
2021/06/26 06:33:03;;;;;;;2.08;1.70;;;20.00;80.20;;;;;;4992641;28;20022;-76
2021/06/26 06:35:28;;;;;;;2.85;1.75;;;19.90;77.50;;;;;;4992560;28;20367;-77
2021/06/26 06:37:55;;;;;;;3.15;1.63;;;20.10;77.00;;;;;;4992712;28;20084;-76
2021/06/26 06:40:21;;;;;;;3.78;1.80;;;20.10;75.10;;;;;;4992455;28;20108;-77
2021/06/26 06:42:47;;;;;;;2.35;1.70;;;20.20;74.90;;;;;;4992411;28;20056;-76
2021/06/26 06:45:14;;;;;;;3.53;1.80;;;20.40;74.40;;;;;;4992760;28;20025;-76
2021/06/26 06:47:40;;;;;;;4.78;1.90;;;20.50;71.70;;;;;;4992676;28;20367;-76
2021/06/26 06:50:08;;;;;;;2.90;1.73;;;20.50;69.00;;;;;;4992471;28;20082;-77
2021/06/26 06:52:34;;;;;;;3.90;1.73;;;20.60;69.60;;;;;;4992134;28;20042;-77
2021/06/26 06:55:00;;;;;;;2.85;1.80;;;20.70;68.50;;;;;;4991092;28;20032;-76
2021/06/26 06:57:26;;;;;;;2.28;2.00;;;20.60;68.00;;;;;;4992415;28;20027;-77
2021/06/26 06:59:53;;;;;;;1.80;1.50;;;20.70;67.90;;;;;;4992533;28;20040;-76
2021/06/26 07:02:19;;;;;;;3.33;2.20;;;20.70;67.60;;;;;;4992388;28;20105;-76
2021/06/26 07:04:46;;;;;;;2.55;2.00;;;20.70;67.40;;;;;;4992111;28;20487;-77
2021/06/26 07:07:12;;;;;;;2.92;1.77;;;20.60;67.40;;;;;;4995094;28;20073;-76
2021/06/26 07:09:38;;;;;;;2.00;1.80;;;20.60;67.60;;;;;;4995945;28;20027;-77
2021/06/26 07:12:04;;;;;;;1.98;1.60;;;20.60;67.10;;;;;;4996141;28;20023;-77
2021/06/26 07:14:30;;;;;;;4.50;1.90;;;20.50;67.00;;;;;;4995956;28;20046;-77
2021/06/26 07:16:56;;;;;;;2.58;1.80;;;20.50;66.50;;;;;;4995790;28;20112;-77
2021/06/26 07:19:22;;;;;;;1.95;1.60;;;20.60;67.00;;;;;;4995898;28;20038;-77
2021/06/26 07:21:48;;;;;;;4.88;1.98;;;20.90;66.80;;;;;;4978220;28;20029;-77
2021/06/26 07:24:14;;;;;;;2.03;1.65;;;21.00;66.70;;;;;;4995784;28;20026;-77
2021/06/26 07:26:40;;;;;;;2.40;1.80;;;21.10;66.10;;;;;;4978294;28;20022;-76
2021/06/26 07:29:06;;;;;;;1.83;1.65;;;21.30;66.00;;;;;;4994561;28;20026;-77
2021/06/26 07:31:32;;;;;;;2.00;1.80;;;21.40;65.00;;;;;;4996314;28;20030;-77
2021/06/26 07:33:58;;;;;;;3.28;1.60;;;21.50;65.30;;;;;;4978110;28;20105;-77
2021/06/26 07:36:24;;;;;;;3.50;1.92;;;21.70;64.50;;;;;;4995750;28;20026;-77
2021/06/26 07:38:50;;;;;;;4.30;1.70;;;21.70;63.60;;;;;;4995266;28;20092;-76
2021/06/26 07:41:16;;;;;;;2.08;1.55;;;21.50;62.20;;;;;;4996255;28;20022;-76
2021/06/26 07:43:43;;;;;;;2.58;1.70;;;21.40;61.90;;;;;;4995322;28;20030;-77
2021/06/26 07:46:09;;;;;;;2.55;1.52;;;21.20;62.20;;;;;;4995827;28;20378;-76
2021/06/26 07:48:34;;;;;;;2.03;1.90;;;21.00;62.50;;;;;;4995183;28;20026;-76
2021/06/26 07:51:01;;;;;;;3.25;1.75;;;21.00;64.90;;;;;;4995687;28;20073;-77
2021/06/26 07:53:27;;;;;;;2.90;1.80;;;20.80;64.00;;;;;;4995154;28;20054;-76
2021/06/26 07:55:53;;;;;;;2.08;1.60;;;20.70;63.70;;;;;;4977583;28;20022;-76
2021/06/26 07:58:24;;;;;;;3.65;1.38;;;20.60;63.50;;;;;;4995260;28;20064;-76
2021/06/26 08:00:50;;;;;;;2.33;1.55;;;20.70;65.50;;;;;;4994997;28;20030;-77
2021/06/26 08:03:17;;;;;;;2.70;1.63;;;20.90;65.00;;;;;;4995194;28;20494;-77
2021/06/26 08:05:44;;;;;;;5.60;1.70;;;21.10;64.70;;;;;;4995120;28;20031;-77
2021/06/26 08:08:09;;;;;;;3.15;1.90;;;21.20;62.50;;;;;;4995135;28;20102;-77
2021/06/26 08:10:36;;;;;;;2.15;1.42;;;21.10;65.10;;;;;;4995098;28;20418;-77
2021/06/26 08:13:02;;;;;;;1.90;1.40;;;21.00;63.40;;;;;;4995202;28;20026;-76
2021/06/26 08:15:28;;;;;;;2.10;1.55;;;20.90;63.00;;;;;;4994945;28;20042;-76
2021/06/26 08:17:55;;;;;;;2.97;1.50;;;20.80;63.70;;;;;;4994436;28;20417;-77
2021/06/26 08:20:21;;;;;;;1.45;1.30;;;20.70;64.40;;;;;;4994835;28;20368;-76
2021/06/26 08:22:47;;;;;;;2.05;1.40;;;20.70;65.00;;;;;;4994939;28;20116;-76
2021/06/26 08:25:13;;;;;;;3.00;1.42;;;20.60;63.30;;;;;;4994725;28;20050;-76
2021/06/26 08:27:39;;;;;;;3.67;1.50;;;20.60;64.70;;;;;;4994622;28;20033;-76
2021/06/26 08:30:05;;;;;;;2.08;1.65;;;20.50;64.20;;;;;;4994597;28;20023;-77
2021/06/26 08:32:31;;;;;;;1.80;1.40;;;20.50;63.20;;;;;;4994627;28;20111;-77
2021/06/26 08:34:57;;;;;;;5.85;1.70;;;20.60;64.80;;;;;;4994522;28;20034;-77
2021/06/26 08:37:22;;;;;;;1.70;1.60;;;20.80;63.20;;;;;;4994474;28;20465;-77
2021/06/26 08:39:48;;;;;;;1.88;1.67;;;20.90;62.30;;;;;;4993034;28;20026;-76
2021/06/26 08:42:15;;;;;;;3.15;1.65;;;20.90;63.00;;;;;;4994484;28;20434;-77
2021/06/26 08:44:42;;;;;;;2.28;1.98;;;20.90;61.40;;;;;;4994119;28;20038;-77
2021/06/26 08:47:09;;;;;;;2.88;1.40;;;20.80;62.50;;;;;;4994560;28;20359;-77
2021/06/26 08:49:34;;;;;;;3.45;1.58;;;20.70;62.30;;;;;;4994524;28;20113;-77
2021/06/26 08:52:01;;;;;;;1.88;1.42;;;20.60;61.30;;;;;;4993879;28;20102;-76
2021/06/26 08:54:26;;;;;;;2.35;1.77;;;20.50;60.60;;;;;;4994405;28;20038;-77
2021/06/26 08:56:52;;;;;;;3.20;1.38;;;20.50;61.40;;;;;;4993974;28;20351;-77
2021/06/26 08:59:18;;;;;;;3.50;1.55;;;20.60;61.50;;;;;;4993973;28;20077;-77
2021/06/26 09:01:45;;;;;;;1.85;1.60;;;20.60;59.90;;;;;;4993982;28;20486;-77
2021/06/26 09:04:14;;;;;;;2.13;1.52;;;20.60;60.30;;;;;;4976376;28;20030;-76
2021/06/26 09:06:55;;;;;;;3.22;1.50;;;20.60;60.00;;;;;;4993808;28;20023;-76
2021/06/26 09:09:37;;;;;;;3.33;1.50;;;20.60;60.00;;;;;;4976438;28;20359;-76
2021/06/26 09:12:12;;;;;;;2.03;1.80;;;20.70;60.90;;;;;;4976542;28;20037;-76
2021/06/26 09:14:39;;;;;;;2.30;1.65;;;20.70;60.90;;;;;;4994090;28;20073;-77
2021/06/26 09:17:06;;;;;;;3.17;1.60;;;20.80;60.90;;;;;;4993748;28;20104;-76
2021/06/26 09:19:34;;;;;;;3.08;2.00;;;20.70;60.50;;;;;;4993722;28;20027;-77
2021/06/26 09:22:02;;;;;;;1.70;1.60;;;20.60;60.40;;;;;;4993638;28;20469;-76
2021/06/26 09:24:45;;;;;;;3.30;1.73;;;20.60;61.40;;;;;;4993552;28;20478;-77
2021/06/26 09:27:13;;;;;;;4.88;1.85;;;20.60;61.10;;;;;;4993656;28;20057;-77
2021/06/26 09:29:50;;;;;;;2.13;1.85;;;20.60;61.30;;;;;;4992935;28;20018;-77
2021/06/26 09:32:28;;;;;;;5.88;1.63;;;20.50;61.70;;;;;;4993534;28;20389;-76
2021/06/26 09:34:55;;;;;;;2.00;1.80;;;20.50;61.80;;;;;;4993212;28;20485;-77
2021/06/26 09:37:24;;;;;;;21.55;2.95;;;20.60;62.20;;;;;;4993371;28;20097;-76
2021/06/26 09:39:55;;;;;;;6.82;1.95;;;20.60;62.40;;;;;;4993407;28;20045;-76
2021/06/26 09:42:26;;;;;;;2.60;2.03;;;20.60;61.90;;;;;;4993278;28;20034;-76
2021/06/26 09:44:54;;;;;;;3.17;1.70;;;20.50;62.10;;;;;;4993175;28;20042;-77
2021/06/26 09:47:39;;;;;;;2.28;1.85;;;20.60;63.60;;;;;;4993274;28;20030;-77
2021/06/26 09:50:22;;;;;;;2.10;1.73;;;20.50;63.00;;;;;;4993280;28;20462;-77
2021/06/26 09:52:55;;;;;;;2.60;1.95;;;20.40;62.80;;;;;;4992745;28;20061;-76
2021/06/26 09:55:28;;;;;;;1.95;1.60;;;20.40;63.30;;;;;;4993183;28;20060;-77
2021/06/26 09:57:56;;;;;;;2.30;1.80;;;20.50;62.70;;;;;;4992869;28;20038;-77
2021/06/26 10:00:24;;;;;;;2.03;1.65;;;20.50;62.30;;;;;;4992994;28;20027;-76
2021/06/26 10:02:51;;;;;;;2.58;1.60;;;20.60;61.70;;;;;;4992780;28;20194;-76
2021/06/26 10:05:18;;;;;;;2.10;1.55;;;20.60;62.40;;;;;;4993114;28;20490;-76
2021/06/26 10:07:47;;;;;;;1.88;1.60;;;20.60;61.80;;;;;;4992879;28;20027;-76
2021/06/26 10:10:14;;;;;;;2.28;1.70;;;20.60;61.50;;;;;;4992895;28;20113;-76
2021/06/26 10:12:41;;;;;;;2.38;1.70;;;20.70;62.70;;;;;;4992800;28;20058;-77
2021/06/26 10:15:09;;;;;;;2.00;1.60;;;20.80;62.80;;;;;;4992661;28;20355;-76
2021/06/26 10:17:36;;;;;;;2.97;1.67;;;20.90;62.10;;;;;;4992651;28;20097;-77
2021/06/26 10:20:06;;;;;;;1.80;1.70;;;20.80;60.90;;;;;;4992574;28;20030;-77
2021/06/26 10:22:34;;;;;;;;;;;20.70;60.90;;;;;;4993152;28;20397;-76
2021/06/26 10:25:01;;;;;;;16.40;2.10;;;20.70;59.70;;;;;;4992490;28;19905;-77
2021/06/26 10:27:27;;;;;;;3.15;1.67;;;20.70;62.50;;;;;;4992666;28;20034;-77
2021/06/26 10:29:52;;;;;;;8.57;1.80;;;20.80;63.00;;;;;;4974977;28;20118;-77
2021/06/26 10:32:19;;;;;;;2.45;2.03;;;20.90;63.70;;;;;;4992773;28;20035;-76
2021/06/26 10:34:47;;;;;;;4.88;1.90;;;20.90;63.70;;;;;;4992401;28;20030;-76
2021/06/26 10:37:24;;;;;;;2.47;1.63;;;21.00;63.10;;;;;;4992554;28;20035;-77
2021/06/26 10:40:06;;;;;;;2.03;1.83;;;21.00;63.40;;;;;;4993020;28;20109;-77
2021/06/26 10:42:40;;;;;;;2.42;1.70;;;20.90;63.30;;;;;;4996627;28;20109;-76
2021/06/26 10:45:24;;;;;;;41.25;4.82;;;20.80;64.10;;;;;;4996374;28;20026;-76
2021/06/26 10:47:49;;;;;;;2.08;1.73;;;20.80;63.90;;;;;;4996494;28;20022;-77
2021/06/26 10:50:21;;;;;;;3.28;1.70;;;20.70;63.50;;;;;;4996706;28;20121;-77
2021/06/26 10:52:58;;;;;;;2.00;1.80;;;20.80;65.50;;;;;;4996139;28;20069;-76
2021/06/26 10:55:33;;;;;;;2.35;1.70;;;20.70;64.10;;;;;;4996368;28;20030;-76
2021/06/26 10:58:00;;;;;;;2.97;2.00;;;20.60;63.80;;;;;;4996494;28;20355;-77
2021/06/26 11:00:44;;;;;;;2.55;1.75;;;20.80;64.30;;;;;;4996199;28;20501;-76
2021/06/26 11:03:23;;;;;;;2.92;1.48;;;20.70;63.00;;;;;;4996356;28;20410;-76
2021/06/26 11:05:49;;;;;;;2.28;1.90;;;20.60;62.20;;;;;;4996343;28;20076;-76
2021/06/26 11:08:16;;;;;;;2.67;2.20;;;20.60;62.50;;;;;;4978872;28;20436;-76
2021/06/26 11:10:56;;;;;;;2.63;1.73;;;20.50;62.00;;;;;;4978615;28;20042;-76
2021/06/26 11:13:23;;;;;;;;;;;20.50;63.20;;;;;;4996587;28;20031;-77
2021/06/26 11:15:49;;;;;;;1.83;1.70;;;20.50;62.60;;;;;;4995980;28;19964;-76
2021/06/26 11:18:16;;;;;;;2.45;1.92;;;20.60;63.20;;;;;;4996046;28;20026;-76
2021/06/26 11:20:43;;;;;;;3.85;1.90;;;20.50;62.90;;;;;;4995998;28;20029;-77
2021/06/26 11:23:17;;;;;;;5.47;2.45;;;20.50;63.00;;;;;;4995761;28;20026;-76
2021/06/26 11:25:44;;;;;;;3.70;2.00;;;20.60;63.70;;;;;;4978321;28;20030;-77
2021/06/26 11:28:14;;;;;;;4.88;1.90;;;20.70;64.20;;;;;;4995895;28;20022;-76
2021/06/26 11:30:43;;;;;;;6.22;1.85;;;20.90;64.60;;;;;;4995732;28;20027;-76
2021/06/26 11:33:09;;;;;;;2.10;1.50;;;20.90;62.40;;;;;;4978087;28;20031;-76
2021/06/26 11:35:41;;;;;;;2.28;1.90;;;20.80;62.00;;;;;;4995601;28;20030;-77
2021/06/26 11:38:18;;;;;;;2.38;1.80;;;20.80;62.80;;;;;;4995601;28;20097;-76
2021/06/26 11:40:44;;;;;;;3.05;2.00;;;20.90;62.40;;;;;;4995462;28;20406;-77
2021/06/26 11:43:10;;;;;;;2.28;1.85;;;20.80;62.40;;;;;;4995426;28;20053;-77
2021/06/26 11:45:39;;;;;;;4.53;1.98;;;20.90;63.00;;;;;;4977944;28;20120;-77
2021/06/26 11:48:17;;;;;;;3.65;1.63;;;21.00;61.30;;;;;;4995631;28;20177;-77
2021/06/26 11:50:54;;;;;;;21.48;2.45;;;20.90;61.00;;;;;;4995414;28;20382;-76
2021/06/26 11:53:22;;;;;;;3.30;1.95;;;20.70;60.20;;;;;;4994545;28;20058;-76
2021/06/26 11:55:58;;;;;;;2.63;2.10;;;20.70;61.30;;;;;;4995183;28;20517;-76
2021/06/26 11:58:35;;;;;;;2.28;1.67;;;20.80;61.00;;;;;;4995618;28;20038;-77
2021/06/26 12:01:05;;;;;;;2.47;1.67;;;20.80;60.90;;;;;;4995268;28;20033;-76
2021/06/26 12:03:31;;;;;;;2.05;1.70;;;20.70;60.20;;;;;;4995529;28;20474;-77
2021/06/26 12:06:02;;;;;;;2.30;1.60;;;20.70;61.30;;;;;;4994922;28;20037;-77
2021/06/26 12:08:39;;;;;;;1.77;1.55;;;20.70;60.50;;;;;;4995072;28;20096;-77
2021/06/26 12:11:05;;;;;;;2.63;1.80;;;20.60;60.00;;;;;;4994907;28;20029;-76
2021/06/26 12:13:31;;;;;;;2.95;1.90;;;20.60;62.30;;;;;;4995084;28;20383;-76
2021/06/26 12:15:57;;;;;;;4.32;2.45;;;20.80;62.00;;;;;;4994785;28;20027;-76
2021/06/26 12:18:23;;;;;;;5.43;1.60;;;20.90;62.00;;;;;;4995067;28;20069;-76
2021/06/26 12:20:49;;;;;;;7.85;1.90;;;21.00;62.00;;;;;;4994927;28;20481;-77
2021/06/26 12:23:14;;;;;;;1.75;1.50;;;21.10;61.10;;;;;;4995074;28;20422;-77
2021/06/26 12:25:45;;;;;;;3.22;1.92;;;21.10;60.20;;;;;;4994675;28;20023;-77
2021/06/26 12:28:12;;;;;;;2.97;1.58;;;21.10;60.40;;;;;;4994643;28;20497;-77
2021/06/26 12:30:39;;;;;;;3.45;1.80;;;21.10;60.60;;;;;;4994792;28;20073;-77
2021/06/26 12:33:10;;;;;;;4.45;1.60;;;21.20;59.80;;;;;;4994578;28;20031;-77
2021/06/26 12:35:37;;;;;;;2.10;1.60;;;21.00;59.70;;;;;;4994560;28;20026;-76
2021/06/26 12:38:04;;;;;;;2.42;1.70;;;21.00;60.30;;;;;;4976949;28;20031;-76
2021/06/26 12:40:42;;;;;;;2.53;1.63;;;21.00;60.00;;;;;;4994511;28;20023;-76
2021/06/26 12:43:13;;;;;;;2.97;1.80;;;21.10;60.90;;;;;;4994434;28;20026;-77
2021/06/26 12:45:48;;;;;;;7.22;1.98;;;21.20;61.70;;;;;;4994360;28;20109;-76
2021/06/26 12:48:26;;;;;;;2.15;1.58;;;21.40;60.80;;;;;;4994312;28;20035;-76
2021/06/26 12:51:05;;;;;;;2.90;1.70;;;21.30;60.00;;;;;;4994420;28;20023;-77
2021/06/26 12:53:35;;;;;;;2.40;1.63;;;21.20;59.70;;;;;;4994136;28;20409;-76
2021/06/26 12:56:03;;;;;;;2.33;1.60;;;21.20;59.40;;;;;;4994105;28;20022;-76
2021/06/26 12:58:28;;;;;;;2.03;1.80;;;21.10;59.80;;;;;;4994160;28;20060;-77
2021/06/26 13:00:56;;;;;;;2.85;1.70;;;21.10;61.00;;;;;;4993804;28;20561;-76
2021/06/26 13:03:22;;;;;;;4.60;1.60;;;21.20;60.30;;;;;;4993514;28;20425;-76
2021/06/26 13:05:48;;;;;;;2.20;1.70;;;21.30;59.50;;;;;;4993907;28;20028;-77
2021/06/26 13:08:16;;;;;;;3.42;1.70;;;21.30;59.40;;;;;;4993896;28;20355;-77
2021/06/26 13:10:51;;;;;;;2.20;1.50;;;21.30;59.60;;;;;;4994090;28;20121;-76
2021/06/26 13:13:24;;;;;;;2.88;1.60;;;21.30;59.40;;;;;;4993826;28;20121;-77
2021/06/26 13:15:50;;;;;;;2.17;1.52;;;21.20;59.70;;;;;;4993790;28;20482;-77
2021/06/26 13:18:15;;;;;;;2.13;1.60;;;21.30;59.30;;;;;;4976063;28;20073;-77
2021/06/26 13:20:41;;;;;;;4.68;2.17;;;21.30;59.30;;;;;;4993730;28;20497;-76
2021/06/26 13:23:07;;;;;;;2.28;1.80;;;21.20;58.90;;;;;;4993523;28;20046;-76